sensor_id;sensor_type;location;lat;lon;timestamp;P1;durP1;ratioP1;P2;durP2;ratioP2
83429;SDS011;73362;50.952;6.952;2024-03-23T00:54:16;28.57;;;10.90;;
83429;SDS011;73362;50.952;6.952;2024-03-23T00:56:44;33.13;;;10.90;;
83429;SDS011;73362;50.952;6.952;2024-03-23T00:59:12;27.93;;;10.33;;
83429;SDS011;73362;50.952;6.952;2024-03-23T01:01:40;36.27;;;11.53;;
83429;SDS011;73362;50.952;6.952;2024-03-23T01:04:08;28.67;;;10.87;;
83429;SDS011;73362;50.952;6.952;2024-03-23T01:06:36;25.50;;;10.57;;
83429;SDS011;73362;50.952;6.952;2024-03-23T01:09:04;26.80;;;12.10;;
83429;SDS011;73362;50.952;6.952;2024-03-23T01:11:32;23.43;;;9.90;;
83429;SDS011;73362;50.952;6.952;2024-03-23T01:14:00;24.07;;;10.03;;
83429;SDS011;73362;50.952;6.952;2024-03-23T01:16:28;22.93;;;10.53;;
83429;SDS011;73362;50.952;6.952;2024-03-23T01:18:56;25.37;;;9.67;;
83429;SDS011;73362;50.952;6.952;2024-03-23T01:21:24;15.93;;;8.07;;
83429;SDS011;73362;50.952;6.952;2024-03-23T01:23:52;14.17;;;6.23;;
83429;SDS011;73362;50.952;6.952;2024-03-23T01:26:20;15.87;;;7.50;;
83429;SDS011;73362;50.952;6.952;2024-03-23T01:28:49;12.53;;;5.07;;
83429;SDS011;73362;50.952;6.952;2024-03-23T01:31:16;10.20;;;4.70;;
83429;SDS011;73362;50.952;6.952;2024-03-23T01:33:44;11.13;;;4.17;;
83429;SDS011;73362;50.952;6.952;2024-03-23T01:36:13;8.67;;;4.20;;
83429;SDS011;73362;50.952;6.952;2024-03-23T01:38:41;9.60;;;3.33;;
83429;SDS011;73362;50.952;6.952;2024-03-23T01:41:09;10.67;;;3.30;;
83429;SDS011;73362;50.952;6.952;2024-03-23T01:43:37;7.77;;;3.50;;
83429;SDS011;73362;50.952;6.952;2024-03-23T01:46:05;13.20;;;4.13;;
83429;SDS011;73362;50.952;6.952;2024-03-23T01:48:33;13.50;;;4.20;;
83429;SDS011;73362;50.952;6.952;2024-03-23T01:51:01;8.37;;;4.70;;
83429;SDS011;73362;50.952;6.952;2024-03-23T01:53:29;11.23;;;5.10;;
83429;SDS011;73362;50.952;6.952;2024-03-23T01:55:57;17.57;;;5.43;;
83429;SDS011;73362;50.952;6.952;2024-03-23T01:58:25;8.30;;;4.53;;
83429;SDS011;73362;50.952;6.952;2024-03-23T02:00:53;16.03;;;5.50;;
83429;SDS011;73362;50.952;6.952;2024-03-23T02:03:23;14.13;;;5.20;;
83429;SDS011;73362;50.952;6.952;2024-03-23T02:05:52;10.80;;;4.63;;
83429;SDS011;73362;50.952;6.952;2024-03-23T02:08:20;9.87;;;4.37;;
83429;SDS011;73362;50.952;6.952;2024-03-23T02:10:48;12.63;;;4.50;;
83429;SDS011;73362;50.952;6.952;2024-03-23T02:13:16;12.43;;;4.40;;
83429;SDS011;73362;50.952;6.952;2024-03-23T02:15:43;11.17;;;4.53;;
83429;SDS011;73362;50.952;6.952;2024-03-23T02:18:12;12.53;;;4.70;;
83429;SDS011;73362;50.952;6.952;2024-03-23T02:20:40;8.77;;;3.93;;
83429;SDS011;73362;50.952;6.952;2024-03-23T02:23:13;13.13;;;3.90;;
83429;SDS011;73362;50.952;6.952;2024-03-23T02:25:40;13.53;;;4.90;;
83429;SDS011;73362;50.952;6.952;2024-03-23T02:28:08;10.97;;;3.93;;
83429;SDS011;73362;50.952;6.952;2024-03-23T02:30:37;15.57;;;4.47;;
83429;SDS011;73362;50.952;6.952;2024-03-23T02:33:04;9.10;;;3.73;;
83429;SDS011;73362;50.952;6.952;2024-03-23T02:35:32;11.03;;;4.17;;
83429;SDS011;73362;50.952;6.952;2024-03-23T02:38:01;6.03;;;3.70;;
83429;SDS011;73362;50.952;6.952;2024-03-23T02:40:29;6.77;;;4.20;;
83429;SDS011;73362;50.952;6.952;2024-03-23T02:42:57;10.37;;;4.03;;
83429;SDS011;73362;50.952;6.952;2024-03-23T02:45:26;7.83;;;3.53;;
83429;SDS011;73362;50.952;6.952;2024-03-23T02:47:54;7.90;;;3.80;;
83429;SDS011;73362;50.952;6.952;2024-03-23T02:50:22;9.77;;;3.60;;
83429;SDS011;73362;50.952;6.952;2024-03-23T02:52:50;7.50;;;3.23;;
83429;SDS011;73362;50.952;6.952;2024-03-23T02:55:18;7.40;;;3.43;;
83429;SDS011;73362;50.952;6.952;2024-03-23T02:57:46;10.47;;;3.47;;
83429;SDS011;73362;50.952;6.952;2024-03-23T03:00:14;9.57;;;3.40;;
83429;SDS011;73362;50.952;6.952;2024-03-23T03:02:43;13.23;;;4.10;;
83429;SDS011;73362;50.952;6.952;2024-03-23T03:05:11;9.30;;;3.67;;
83429;SDS011;73362;50.952;6.952;2024-03-23T03:07:39;11.83;;;3.87;;
83429;SDS011;73362;50.952;6.952;2024-03-23T03:10:07;9.50;;;3.47;;
83429;SDS011;73362;50.952;6.952;2024-03-23T03:12:35;9.83;;;3.70;;
83429;SDS011;73362;50.952;6.952;2024-03-23T03:15:03;9.03;;;4.10;;
83429;SDS011;73362;50.952;6.952;2024-03-23T03:17:31;11.50;;;3.83;;
83429;SDS011;73362;50.952;6.952;2024-03-23T03:19:59;12.83;;;3.83;;
83429;SDS011;73362;50.952;6.952;2024-03-23T03:22:27;12.70;;;4.03;;
83429;SDS011;73362;50.952;6.952;2024-03-23T03:24:55;13.43;;;4.87;;
83429;SDS011;73362;50.952;6.952;2024-03-23T03:27:23;12.93;;;4.70;;
83429;SDS011;73362;50.952;6.952;2024-03-23T03:29:51;12.93;;;5.20;;
83429;SDS011;73362;50.952;6.952;2024-03-23T03:32:19;11.53;;;4.67;;
83429;SDS011;73362;50.952;6.952;2024-03-23T03:34:47;12.63;;;4.60;;
83429;SDS011;73362;50.952;6.952;2024-03-23T03:37:15;8.27;;;3.67;;
83429;SDS011;73362;50.952;6.952;2024-03-23T03:39:43;13.47;;;4.00;;
83429;SDS011;73362;50.952;6.952;2024-03-23T03:42:11;15.20;;;4.37;;
83429;SDS011;73362;50.952;6.952;2024-03-23T03:44:39;11.37;;;3.90;;
83429;SDS011;73362;50.952;6.952;2024-03-23T03:47:08;6.80;;;3.17;;
83429;SDS011;73362;50.952;6.952;2024-03-23T03:49:36;13.97;;;4.13;;
83429;SDS011;73362;50.952;6.952;2024-03-23T03:52:04;6.53;;;2.87;;
83429;SDS011;73362;50.952;6.952;2024-03-23T03:54:32;12.77;;;4.23;;
83429;SDS011;73362;50.952;6.952;2024-03-23T03:57:00;14.07;;;3.23;;
83429;SDS011;73362;50.952;6.952;2024-03-23T03:59:28;10.13;;;3.00;;
83429;SDS011;73362;50.952;6.952;2024-03-23T04:01:56;13.70;;;2.90;;
83429;SDS011;73362;50.952;6.952;2024-03-23T04:04:24;6.07;;;2.23;;
83429;SDS011;73362;50.952;6.952;2024-03-23T04:09:26;10.53;;;2.33;;
83429;SDS011;73362;50.952;6.952;2024-03-23T04:11:54;11.90;;;2.80;;
83429;SDS011;73362;50.952;6.952;2024-03-23T04:14:22;8.20;;;2.57;;
83429;SDS011;73362;50.952;6.952;2024-03-23T04:16:50;11.07;;;2.67;;
83429;SDS011;73362;50.952;6.952;2024-03-23T04:19:18;13.37;;;2.60;;
83429;SDS011;73362;50.952;6.952;2024-03-23T04:21:46;10.10;;;2.40;;
83429;SDS011;73362;50.952;6.952;2024-03-23T04:24:14;7.00;;;3.00;;
83429;SDS011;73362;50.952;6.952;2024-03-23T04:26:42;9.93;;;2.40;;
83429;SDS011;73362;50.952;6.952;2024-03-23T04:29:10;10.97;;;2.73;;
83429;SDS011;73362;50.952;6.952;2024-03-23T04:31:38;9.40;;;2.30;;
83429;SDS011;73362;50.952;6.952;2024-03-23T04:34:06;10.47;;;1.97;;
83429;SDS011;73362;50.952;6.952;2024-03-23T04:36:34;6.70;;;2.07;;
83429;SDS011;73362;50.952;6.952;2024-03-23T04:39:02;8.57;;;2.20;;
83429;SDS011;73362;50.952;6.952;2024-03-23T04:41:30;12.17;;;2.83;;
83429;SDS011;73362;50.952;6.952;2024-03-23T04:43:58;10.37;;;2.77;;
83429;SDS011;73362;50.952;6.952;2024-03-23T04:46:26;8.10;;;2.30;;
83429;SDS011;73362;50.952;6.952;2024-03-23T04:48:54;5.80;;;2.30;;
83429;SDS011;73362;50.952;6.952;2024-03-23T04:51:22;8.73;;;2.20;;
83429;SDS011;73362;50.952;6.952;2024-03-23T04:53:50;7.63;;;2.50;;
83429;SDS011;73362;50.952;6.952;2024-03-23T04:56:18;9.43;;;2.40;;
83429;SDS011;73362;50.952;6.952;2024-03-23T04:58:46;13.20;;;2.63;;
83429;SDS011;73362;50.952;6.952;2024-03-23T05:01:14;8.43;;;2.57;;
83429;SDS011;73362;50.952;6.952;2024-03-23T05:03:42;7.57;;;2.27;;
83429;SDS011;73362;50.952;6.952;2024-03-23T05:06:10;12.87;;;3.13;;
83429;SDS011;73362;50.952;6.952;2024-03-23T05:08:38;11.67;;;2.60;;
83429;SDS011;73362;50.952;6.952;2024-03-23T05:11:06;10.00;;;2.10;;
83429;SDS011;73362;50.952;6.952;2024-03-23T05:13:34;9.50;;;2.60;;
83429;SDS011;73362;50.952;6.952;2024-03-23T05:16:03;11.77;;;2.73;;
83429;SDS011;73362;50.952;6.952;2024-03-23T05:18:31;11.03;;;2.50;;
83429;SDS011;73362;50.952;6.952;2024-03-23T05:20:59;13.30;;;3.00;;
83429;SDS011;73362;50.952;6.952;2024-03-23T05:23:28;8.37;;;2.57;;
83429;SDS011;73362;50.952;6.952;2024-03-23T05:25:55;13.60;;;3.07;;
83429;SDS011;73362;50.952;6.952;2024-03-23T05:28:23;6.70;;;2.47;;
83429;SDS011;73362;50.952;6.952;2024-03-23T05:30:52;5.37;;;2.30;;
83429;SDS011;73362;50.952;6.952;2024-03-23T05:33:19;11.17;;;2.50;;
83429;SDS011;73362;50.952;6.952;2024-03-23T05:35:49;11.87;;;2.63;;
83429;SDS011;73362;50.952;6.952;2024-03-23T05:38:15;10.93;;;2.80;;
83429;SDS011;73362;50.952;6.952;2024-03-23T05:40:52;9.73;;;2.60;;
83429;SDS011;73362;50.952;6.952;2024-03-23T05:43:11;9.00;;;2.60;;
83429;SDS011;73362;50.952;6.952;2024-03-23T05:45:39;12.13;;;2.83;;
83429;SDS011;73362;50.952;6.952;2024-03-23T05:48:07;10.13;;;3.07;;
83429;SDS011;73362;50.952;6.952;2024-03-23T05:50:35;8.97;;;2.80;;
83429;SDS011;73362;50.952;6.952;2024-03-23T05:53:03;8.27;;;2.70;;
83429;SDS011;73362;50.952;6.952;2024-03-23T05:55:31;12.27;;;2.67;;
83429;SDS011;73362;50.952;6.952;2024-03-23T05:57:59;10.40;;;2.77;;
83429;SDS011;73362;50.952;6.952;2024-03-23T06:00:27;7.23;;;2.90;;
83429;SDS011;73362;50.952;6.952;2024-03-23T06:02:55;11.63;;;3.20;;
83429;SDS011;73362;50.952;6.952;2024-03-23T06:05:23;10.30;;;2.90;;
83429;SDS011;73362;50.952;6.952;2024-03-23T06:07:52;13.30;;;2.80;;
83429;SDS011;73362;50.952;6.952;2024-03-23T06:10:20;9.50;;;2.60;;
83429;SDS011;73362;50.952;6.952;2024-03-23T06:12:48;7.80;;;2.37;;
83429;SDS011;73362;50.952;6.952;2024-03-23T06:15:16;11.77;;;2.90;;
83429;SDS011;73362;50.952;6.952;2024-03-23T06:17:44;9.97;;;2.50;;
83429;SDS011;73362;50.952;6.952;2024-03-23T06:20:12;10.50;;;2.90;;
83429;SDS011;73362;50.952;6.952;2024-03-23T06:22:40;11.63;;;2.90;;
83429;SDS011;73362;50.952;6.952;2024-03-23T06:25:08;9.43;;;2.90;;
83429;SDS011;73362;50.952;6.952;2024-03-23T06:27:36;8.17;;;2.40;;
83429;SDS011;73362;50.952;6.952;2024-03-23T06:30:04;10.70;;;2.47;;
83429;SDS011;73362;50.952;6.952;2024-03-23T06:32:33;9.83;;;3.03;;
83429;SDS011;73362;50.952;6.952;2024-03-23T06:35:01;14.03;;;3.20;;
83429;SDS011;73362;50.952;6.952;2024-03-23T06:37:29;8.93;;;3.00;;
83429;SDS011;73362;50.952;6.952;2024-03-23T06:39:57;12.83;;;3.77;;
83429;SDS011;73362;50.952;6.952;2024-03-23T06:42:25;9.20;;;3.00;;
83429;SDS011;73362;50.952;6.952;2024-03-23T06:44:53;13.87;;;3.20;;
83429;SDS011;73362;50.952;6.952;2024-03-23T06:47:21;12.57;;;3.20;;
83429;SDS011;73362;50.952;6.952;2024-03-23T06:49:49;14.97;;;3.10;;
83429;SDS011;73362;50.952;6.952;2024-03-23T06:52:17;12.03;;;3.17;;
83429;SDS011;73362;50.952;6.952;2024-03-23T06:54:45;11.67;;;3.53;;
83429;SDS011;73362;50.952;6.952;2024-03-23T06:57:13;14.00;;;3.57;;
83429;SDS011;73362;50.952;6.952;2024-03-23T06:59:41;13.00;;;3.50;;
83429;SDS011;73362;50.952;6.952;2024-03-23T07:02:09;11.57;;;3.40;;
83429;SDS011;73362;50.952;6.952;2024-03-23T07:04:37;12.23;;;3.63;;
83429;SDS011;73362;50.952;6.952;2024-03-23T07:07:05;13.97;;;3.80;;
83429;SDS011;73362;50.952;6.952;2024-03-23T07:09:33;11.37;;;3.70;;
83429;SDS011;73362;50.952;6.952;2024-03-23T07:12:01;11.40;;;3.60;;
83429;SDS011;73362;50.952;6.952;2024-03-23T07:14:29;12.77;;;3.50;;
83429;SDS011;73362;50.952;6.952;2024-03-23T07:16:57;14.47;;;3.87;;
83429;SDS011;73362;50.952;6.952;2024-03-23T07:19:25;10.87;;;3.80;;
83429;SDS011;73362;50.952;6.952;2024-03-23T07:21:53;10.40;;;3.87;;
83429;SDS011;73362;50.952;6.952;2024-03-23T07:24:21;12.00;;;4.07;;
83429;SDS011;73362;50.952;6.952;2024-03-23T07:26:49;15.90;;;4.67;;
83429;SDS011;73362;50.952;6.952;2024-03-23T07:29:17;15.27;;;4.90;;
83429;SDS011;73362;50.952;6.952;2024-03-23T07:31:45;15.63;;;4.87;;
83429;SDS011;73362;50.952;6.952;2024-03-23T07:34:13;13.00;;;4.70;;
83429;SDS011;73362;50.952;6.952;2024-03-23T07:36:41;11.43;;;5.00;;
83429;SDS011;73362;50.952;6.952;2024-03-23T07:39:09;17.03;;;6.40;;
83429;SDS011;73362;50.952;6.952;2024-03-23T07:41:37;13.43;;;5.47;;
83429;SDS011;73362;50.952;6.952;2024-03-23T07:44:05;11.73;;;5.73;;
83429;SDS011;73362;50.952;6.952;2024-03-23T07:46:34;18.53;;;6.00;;
83429;SDS011;73362;50.952;6.952;2024-03-23T07:49:03;11.63;;;5.97;;
83429;SDS011;73362;50.952;6.952;2024-03-23T07:51:30;15.20;;;5.80;;
83429;SDS011;73362;50.952;6.952;2024-03-23T07:53:58;13.40;;;6.13;;
83429;SDS011;73362;50.952;6.952;2024-03-23T07:56:26;15.93;;;7.03;;
83429;SDS011;73362;50.952;6.952;2024-03-23T07:58:54;13.57;;;6.77;;
83429;SDS011;73362;50.952;6.952;2024-03-23T08:01:22;13.90;;;6.63;;
83429;SDS011;73362;50.952;6.952;2024-03-23T08:03:50;16.43;;;6.87;;
83429;SDS011;73362;50.952;6.952;2024-03-23T08:06:18;14.40;;;7.97;;
83429;SDS011;73362;50.952;6.952;2024-03-23T08:08:47;11.93;;;5.80;;
83429;SDS011;73362;50.952;6.952;2024-03-23T08:11:15;16.83;;;7.00;;
83429;SDS011;73362;50.952;6.952;2024-03-23T08:13:44;14.37;;;6.30;;
83429;SDS011;73362;50.952;6.952;2024-03-23T08:16:11;12.40;;;5.13;;
83429;SDS011;73362;50.952;6.952;2024-03-23T08:18:39;7.87;;;5.10;;
83429;SDS011;73362;50.952;6.952;2024-03-23T08:21:07;13.47;;;6.10;;
83429;SDS011;73362;50.952;6.952;2024-03-23T08:23:35;10.87;;;4.90;;
83429;SDS011;73362;50.952;6.952;2024-03-23T08:26:05;11.83;;;4.70;;
83429;SDS011;73362;50.952;6.952;2024-03-23T08:28:32;10.93;;;4.20;;
83429;SDS011;73362;50.952;6.952;2024-03-23T08:31:01;9.60;;;3.83;;
83429;SDS011;73362;50.952;6.952;2024-03-23T08:33:29;10.67;;;3.87;;
83429;SDS011;73362;50.952;6.952;2024-03-23T08:35:58;6.93;;;2.80;;
83429;SDS011;73362;50.952;6.952;2024-03-23T08:38:25;6.60;;;2.63;;
83429;SDS011;73362;50.952;6.952;2024-03-23T08:40:59;10.47;;;3.40;;
83429;SDS011;73362;50.952;6.952;2024-03-23T08:43:27;9.17;;;3.53;;
83429;SDS011;73362;50.952;6.952;2024-03-23T08:46:03;10.93;;;3.83;;
83429;SDS011;73362;50.952;6.952;2024-03-23T08:48:23;8.67;;;4.00;;
83429;SDS011;73362;50.952;6.952;2024-03-23T08:53:26;7.03;;;3.77;;
83429;SDS011;73362;50.952;6.952;2024-03-23T08:55:53;10.13;;;4.70;;
83429;SDS011;73362;50.952;6.952;2024-03-23T08:58:21;12.10;;;4.30;;
83429;SDS011;73362;50.952;6.952;2024-03-23T09:00:49;9.77;;;4.47;;
83429;SDS011;73362;50.952;6.952;2024-03-23T09:03:17;8.23;;;4.57;;
83429;SDS011;73362;50.952;6.952;2024-03-23T09:05:45;10.80;;;4.90;;
83429;SDS011;73362;50.952;6.952;2024-03-23T09:08:13;12.17;;;4.87;;
83429;SDS011;73362;50.952;6.952;2024-03-23T09:10:41;9.80;;;4.93;;
83429;SDS011;73362;50.952;6.952;2024-03-23T09:13:09;10.30;;;5.00;;
83429;SDS011;73362;50.952;6.952;2024-03-23T09:15:44;13.60;;;4.90;;
83429;SDS011;73362;50.952;6.952;2024-03-23T09:18:05;8.60;;;4.40;;
83429;SDS011;73362;50.952;6.952;2024-03-23T09:20:33;11.93;;;4.30;;
83429;SDS011;73362;50.952;6.952;2024-03-23T09:23:01;16.33;;;4.60;;
83429;SDS011;73362;50.952;6.952;2024-03-23T09:25:29;9.53;;;3.50;;
83429;SDS011;73362;50.952;6.952;2024-03-23T09:27:58;9.63;;;3.53;;
83429;SDS011;73362;50.952;6.952;2024-03-23T09:30:25;13.33;;;3.33;;
83429;SDS011;73362;50.952;6.952;2024-03-23T09:32:53;6.53;;;2.90;;
83429;SDS011;73362;50.952;6.952;2024-03-23T09:35:21;7.50;;;3.60;;
83429;SDS011;73362;50.952;6.952;2024-03-23T09:37:49;11.87;;;3.60;;
83429;SDS011;73362;50.952;6.952;2024-03-23T09:40:17;10.13;;;3.03;;
83429;SDS011;73362;50.952;6.952;2024-03-23T09:42:52;7.73;;;2.70;;
83429;SDS011;73362;50.952;6.952;2024-03-23T09:45:21;7.83;;;3.23;;
83429;SDS011;73362;50.952;6.952;2024-03-23T09:47:48;11.03;;;3.27;;
83429;SDS011;73362;50.952;6.952;2024-03-23T09:50:16;8.23;;;2.93;;
83429;SDS011;73362;50.952;6.952;2024-03-23T09:52:45;7.03;;;2.40;;
83429;SDS011;73362;50.952;6.952;2024-03-23T09:55:13;10.67;;;3.40;;
83429;SDS011;73362;50.952;6.952;2024-03-23T09:57:42;6.33;;;2.40;;
83429;SDS011;73362;50.952;6.952;2024-03-23T10:00:10;4.77;;;2.60;;
83429;SDS011;73362;50.952;6.952;2024-03-23T10:02:38;6.80;;;2.40;;
83429;SDS011;73362;50.952;6.952;2024-03-23T10:05:19;6.73;;;2.47;;
83429;SDS011;73362;50.952;6.952;2024-03-23T10:07:34;5.20;;;2.20;;
83429;SDS011;73362;50.952;6.952;2024-03-23T10:10:10;4.77;;;2.10;;
83429;SDS011;73362;50.952;6.952;2024-03-23T10:12:30;7.03;;;1.77;;
83429;SDS011;73362;50.952;6.952;2024-03-23T10:14:58;4.80;;;1.93;;
83429;SDS011;73362;50.952;6.952;2024-03-23T10:17:26;9.27;;;2.43;;
83429;SDS011;73362;50.952;6.952;2024-03-23T10:19:55;7.13;;;2.37;;
83429;SDS011;73362;50.952;6.952;2024-03-23T10:22:23;5.50;;;2.43;;
83429;SDS011;73362;50.952;6.952;2024-03-23T10:24:50;7.50;;;2.10;;
83429;SDS011;73362;50.952;6.952;2024-03-23T10:27:19;8.60;;;2.10;;
83429;SDS011;73362;50.952;6.952;2024-03-23T10:29:48;6.50;;;2.00;;
83429;SDS011;73362;50.952;6.952;2024-03-23T10:32:16;8.57;;;2.37;;
83429;SDS011;73362;50.952;6.952;2024-03-23T10:34:44;7.17;;;1.77;;
83429;SDS011;73362;50.952;6.952;2024-03-23T10:37:12;5.27;;;1.50;;
83429;SDS011;73362;50.952;6.952;2024-03-23T10:39:40;3.77;;;1.13;;
83429;SDS011;73362;50.952;6.952;2024-03-23T10:42:08;5.97;;;1.63;;
83429;SDS011;73362;50.952;6.952;2024-03-23T10:44:36;3.60;;;1.40;;
83429;SDS011;73362;50.952;6.952;2024-03-23T10:47:04;4.90;;;1.33;;
83429;SDS011;73362;50.952;6.952;2024-03-23T10:49:33;4.17;;;1.30;;
83429;SDS011;73362;50.952;6.952;2024-03-23T10:52:00;4.10;;;1.47;;
83429;SDS011;73362;50.952;6.952;2024-03-23T10:54:28;4.20;;;1.50;;
83429;SDS011;73362;50.952;6.952;2024-03-23T10:57:06;6.00;;;1.53;;
83429;SDS011;73362;50.952;6.952;2024-03-23T10:59:33;3.67;;;1.50;;
83429;SDS011;73362;50.952;6.952;2024-03-23T11:02:02;3.53;;;1.60;;
83429;SDS011;73362;50.952;6.952;2024-03-23T11:04:33;3.30;;;0.93;;
83429;SDS011;73362;50.952;6.952;2024-03-23T11:07:02;3.67;;;0.93;;
83429;SDS011;73362;50.952;6.952;2024-03-23T11:09:38;3.67;;;1.10;;
83429;SDS011;73362;50.952;6.952;2024-03-23T11:12:34;2.03;;;0.90;;
83429;SDS011;73362;50.952;6.952;2024-03-23T11:14:46;2.53;;;1.00;;
83429;SDS011;73362;50.952;6.952;2024-03-23T11:17:14;4.60;;;1.10;;
83429;SDS011;73362;50.952;6.952;2024-03-23T11:19:42;5.50;;;1.70;;
83429;SDS011;73362;50.952;6.952;2024-03-23T11:22:10;3.23;;;1.60;;
83429;SDS011;73362;50.952;6.952;2024-03-23T11:24:38;7.83;;;2.00;;
83429;SDS011;73362;50.952;6.952;2024-03-23T11:27:15;2.17;;;1.20;;
83429;SDS011;73362;50.952;6.952;2024-03-23T11:29:34;2.67;;;0.90;;
83429;SDS011;73362;50.952;6.952;2024-03-23T11:32:02;2.30;;;0.80;;
83429;SDS011;73362;50.952;6.952;2024-03-23T11:34:30;2.13;;;0.83;;
83429;SDS011;73362;50.952;6.952;2024-03-23T11:37:03;4.60;;;1.00;;
83429;SDS011;73362;50.952;6.952;2024-03-23T11:39:28;1.67;;;0.80;;
83429;SDS011;73362;50.952;6.952;2024-03-23T11:41:56;3.73;;;1.27;;
83429;SDS011;73362;50.952;6.952;2024-03-23T11:44:25;1.77;;;1.00;;
83429;SDS011;73362;50.952;6.952;2024-03-23T11:46:53;1.20;;;0.83;;
83429;SDS011;73362;50.952;6.952;2024-03-23T11:49:22;3.40;;;1.03;;
83429;SDS011;73362;50.952;6.952;2024-03-23T11:51:50;4.30;;;1.13;;
83429;SDS011;73362;50.952;6.952;2024-03-23T11:54:20;4.60;;;1.10;;
83429;SDS011;73362;50.952;6.952;2024-03-23T12:01:55;1.60;;;1.13;;
83429;SDS011;73362;50.952;6.952;2024-03-23T12:04:25;3.23;;;1.50;;
83429;SDS011;73362;50.952;6.952;2024-03-23T12:07:08;3.87;;;1.50;;
83429;SDS011;73362;50.952;6.952;2024-03-23T12:09:20;2.77;;;1.30;;
83429;SDS011;73362;50.952;6.952;2024-03-23T12:11:48;3.53;;;1.17;;
83429;SDS011;73362;50.952;6.952;2024-03-23T12:14:16;3.67;;;1.07;;
83429;SDS011;73362;50.952;6.952;2024-03-23T12:16:44;2.60;;;1.10;;
83429;SDS011;73362;50.952;6.952;2024-03-23T12:19:12;1.87;;;1.13;;
83429;SDS011;73362;50.952;6.952;2024-03-23T12:21:40;3.30;;;1.20;;
83429;SDS011;73362;50.952;6.952;2024-03-23T12:24:08;4.10;;;1.83;;
83429;SDS011;73362;50.952;6.952;2024-03-23T12:26:36;2.33;;;1.20;;
83429;SDS011;73362;50.952;6.952;2024-03-23T12:29:04;3.40;;;1.67;;
83429;SDS011;73362;50.952;6.952;2024-03-23T12:31:33;1.63;;;1.20;;
83429;SDS011;73362;50.952;6.952;2024-03-23T12:34:01;2.57;;;1.37;;
83429;SDS011;73362;50.952;6.952;2024-03-23T12:36:29;1.60;;;1.27;;
83429;SDS011;73362;50.952;6.952;2024-03-23T12:38:57;2.13;;;0.80;;
83429;SDS011;73362;50.952;6.952;2024-03-23T12:41:25;1.00;;;0.90;;
83429;SDS011;73362;50.952;6.952;2024-03-23T12:43:53;2.47;;;1.07;;
83429;SDS011;73362;50.952;6.952;2024-03-23T12:46:21;0.90;;;0.90;;
83429;SDS011;73362;50.952;6.952;2024-03-23T12:48:49;2.67;;;1.20;;
83429;SDS011;73362;50.952;6.952;2024-03-23T12:51:17;1.80;;;1.10;;
83429;SDS011;73362;50.952;6.952;2024-03-23T12:53:45;1.03;;;0.60;;
83429;SDS011;73362;50.952;6.952;2024-03-23T12:56:13;4.10;;;1.27;;
83429;SDS011;73362;50.952;6.952;2024-03-23T12:58:41;1.13;;;0.70;;
83429;SDS011;73362;50.952;6.952;2024-03-23T13:01:09;1.90;;;0.70;;
83429;SDS011;73362;50.952;6.952;2024-03-23T13:03:37;1.33;;;0.80;;
83429;SDS011;73362;50.952;6.952;2024-03-23T13:06:05;1.23;;;0.70;;
83429;SDS011;73362;50.952;6.952;2024-03-23T13:08:33;1.60;;;0.80;;
83429;SDS011;73362;50.952;6.952;2024-03-23T13:11:01;1.60;;;1.00;;
83429;SDS011;73362;50.952;6.952;2024-03-23T13:13:29;1.57;;;0.80;;
83429;SDS011;73362;50.952;6.952;2024-03-23T13:15:57;3.07;;;0.80;;
83429;SDS011;73362;50.952;6.952;2024-03-23T13:18:25;2.23;;;1.03;;
83429;SDS011;73362;50.952;6.952;2024-03-23T13:20:53;1.57;;;0.90;;
83429;SDS011;73362;50.952;6.952;2024-03-23T13:23:21;2.90;;;1.03;;
83429;SDS011;73362;50.952;6.952;2024-03-23T13:25:51;3.73;;;1.30;;
83429;SDS011;73362;50.952;6.952;2024-03-23T13:28:19;3.53;;;1.23;;
83429;SDS011;73362;50.952;6.952;2024-03-23T13:30:51;2.67;;;1.30;;
83429;SDS011;73362;50.952;6.952;2024-03-23T13:33:18;3.60;;;1.47;;
83429;SDS011;73362;50.952;6.952;2024-03-23T13:35:49;5.03;;;2.07;;
83429;SDS011;73362;50.952;6.952;2024-03-23T13:38:16;4.47;;;2.40;;
83429;SDS011;73362;50.952;6.952;2024-03-23T13:40:51;4.77;;;2.17;;
83429;SDS011;73362;50.952;6.952;2024-03-23T13:43:18;2.17;;;1.90;;
83429;SDS011;73362;50.952;6.952;2024-03-23T13:45:48;2.43;;;1.90;;
83429;SDS011;73362;50.952;6.952;2024-03-23T13:48:16;2.90;;;2.00;;
83429;SDS011;73362;50.952;6.952;2024-03-23T13:50:44;5.90;;;1.67;;
83429;SDS011;73362;50.952;6.952;2024-03-23T13:53:12;4.13;;;2.20;;
83429;SDS011;73362;50.952;6.952;2024-03-23T13:55:46;4.90;;;2.03;;
83429;SDS011;73362;50.952;6.952;2024-03-23T13:58:14;4.03;;;1.73;;
83429;SDS011;73362;50.952;6.952;2024-03-23T14:00:42;3.17;;;1.43;;
83429;SDS011;73362;50.952;6.952;2024-03-23T14:03:10;3.10;;;0.90;;
83429;SDS011;73362;50.952;6.952;2024-03-23T14:05:38;1.13;;;0.93;;
83429;SDS011;73362;50.952;6.952;2024-03-23T14:08:07;1.33;;;0.80;;
83429;SDS011;73362;50.952;6.952;2024-03-23T14:10:34;3.47;;;1.20;;
83429;SDS011;73362;50.952;6.952;2024-03-23T14:13:05;1.37;;;0.80;;
83429;SDS011;73362;50.952;6.952;2024-03-23T14:15:33;1.60;;;0.73;;
83429;SDS011;73362;50.952;6.952;2024-03-23T14:18:01;1.80;;;1.13;;
83429;SDS011;73362;50.952;6.952;2024-03-23T14:20:29;1.77;;;0.80;;
83429;SDS011;73362;50.952;6.952;2024-03-23T14:22:57;1.63;;;1.00;;
83429;SDS011;73362;50.952;6.952;2024-03-23T14:25:25;3.27;;;1.03;;
83429;SDS011;73362;50.952;6.952;2024-03-23T14:27:53;1.40;;;1.00;;
83429;SDS011;73362;50.952;6.952;2024-03-23T14:30:21;3.53;;;1.10;;
83429;SDS011;73362;50.952;6.952;2024-03-23T14:32:49;1.30;;;0.90;;
83429;SDS011;73362;50.952;6.952;2024-03-23T14:35:17;2.33;;;1.03;;
83429;SDS011;73362;50.952;6.952;2024-03-23T14:37:45;2.80;;;1.10;;
83429;SDS011;73362;50.952;6.952;2024-03-23T14:40:13;1.80;;;0.90;;
83429;SDS011;73362;50.952;6.952;2024-03-23T14:42:42;2.83;;;1.13;;
83429;SDS011;73362;50.952;6.952;2024-03-23T14:45:10;4.37;;;1.27;;
83429;SDS011;73362;50.952;6.952;2024-03-23T14:47:38;3.37;;;1.33;;
83429;SDS011;73362;50.952;6.952;2024-03-23T14:50:06;4.30;;;1.50;;
83429;SDS011;73362;50.952;6.952;2024-03-23T14:52:34;3.00;;;1.40;;
83429;SDS011;73362;50.952;6.952;2024-03-23T14:55:02;1.73;;;1.30;;
83429;SDS011;73362;50.952;6.952;2024-03-23T14:57:31;1.60;;;0.90;;
83429;SDS011;73362;50.952;6.952;2024-03-23T14:59:59;1.47;;;1.17;;
83429;SDS011;73362;50.952;6.952;2024-03-23T15:02:27;3.30;;;0.87;;
83429;SDS011;73362;50.952;6.952;2024-03-23T15:04:55;1.50;;;0.80;;
83429;SDS011;73362;50.952;6.952;2024-03-23T15:07:23;2.33;;;0.80;;
83429;SDS011;73362;50.952;6.952;2024-03-23T15:09:51;1.13;;;0.70;;
83429;SDS011;73362;50.952;6.952;2024-03-23T15:12:19;1.30;;;1.00;;
83429;SDS011;73362;50.952;6.952;2024-03-23T15:14:48;0.97;;;0.80;;
83429;SDS011;73362;50.952;6.952;2024-03-23T15:17:15;1.00;;;1.00;;
83429;SDS011;73362;50.952;6.952;2024-03-23T15:19:43;2.17;;;1.07;;
83429;SDS011;73362;50.952;6.952;2024-03-23T15:22:11;5.37;;;1.10;;
83429;SDS011;73362;50.952;6.952;2024-03-23T15:24:39;1.67;;;1.03;;
83429;SDS011;73362;50.952;6.952;2024-03-23T15:27:07;4.03;;;1.00;;
83429;SDS011;73362;50.952;6.952;2024-03-23T15:29:35;3.10;;;1.00;;
83429;SDS011;73362;50.952;6.952;2024-03-23T15:32:04;2.20;;;0.97;;
83429;SDS011;73362;50.952;6.952;2024-03-23T15:34:32;1.20;;;1.03;;
83429;SDS011;73362;50.952;6.952;2024-03-23T15:37:00;1.53;;;0.83;;
83429;SDS011;73362;50.952;6.952;2024-03-23T15:39:28;1.83;;;1.17;;
83429;SDS011;73362;50.952;6.952;2024-03-23T15:41:56;2.77;;;1.17;;
83429;SDS011;73362;50.952;6.952;2024-03-23T15:44:24;1.77;;;1.30;;
83429;SDS011;73362;50.952;6.952;2024-03-23T15:46:52;1.97;;;1.53;;
83429;SDS011;73362;50.952;6.952;2024-03-23T15:49:20;4.40;;;2.60;;
83429;SDS011;73362;50.952;6.952;2024-03-23T15:51:48;4.00;;;2.53;;